KUGN/UGN METAR and TAF weather

Enter ICAO airport designator
Station Type Date Time Source
KUGN METAR 2019/10/20 18:55 UTC NOAA

KUGN 201855Z 09007KT 9SM CLR 12/08 A2992 RMK AO2 SLP131 T01220083


Station Type Date Time Source
KUGN Decoded METAR 2019/10/20 18:55 UTC NOAA

CHICAGO/WAUKEGAN REGIONAL, IL, United States (KUGN) 42-25N 087-52W
Oct 20, 2019 - 02:55 PM EDT / 2019.10.20 1855 UTC
Wind: from the E (090 degrees) at 8 MPH (7 KT):0
Visibility: 9 mile(s):0
Sky conditions: clear
Temperature: 54.0 F (12.2 C)
Dew Point: 46.9 F (8.3 C)
Relative Humidity: 77%
Pressure (altimeter): 29.92 in. Hg (1013 hPa)
ob: KUGN 201855Z 09007KT 9SM CLR 12/08 A2992 RMK AO2 SLP131 T01220083
cycle: 19

Station Type Date Time Source
KUGN TAF UTC NOAA

Error!

Example: see airport list